sensor_id;sensor_type;location;lat;lon;timestamp;P1;durP1;ratioP1;P2;durP2;ratioP2
49296;SDS011;35163;48.878;18.040;2023-04-03T00:01:06;6.65;;;3.03;;
49296;SDS011;35163;48.878;18.040;2023-04-03T00:03:33;6.50;;;3.10;;
49296;SDS011;35163;48.878;18.040;2023-04-03T00:06:01;5.32;;;3.00;;
49296;SDS011;35163;48.878;18.040;2023-04-03T00:08:27;4.90;;;2.92;;
49296;SDS011;35163;48.878;18.040;2023-04-03T00:10:57;5.57;;;3.25;;
49296;SDS011;35163;48.878;18.040;2023-04-03T00:13:24;4.32;;;2.50;;
49296;SDS011;35163;48.878;18.040;2023-04-03T00:15:51;5.68;;;2.78;;
49296;SDS011;35163;48.878;18.040;2023-04-03T00:18:18;4.80;;;2.53;;
49296;SDS011;35163;48.878;18.040;2023-04-03T00:20:47;4.93;;;2.78;;
49296;SDS011;35163;48.878;18.040;2023-04-03T00:23:15;5.78;;;2.97;;
49296;SDS011;35163;48.878;18.040;2023-04-03T00:25:41;4.10;;;2.55;;
49296;SDS011;35163;48.878;18.040;2023-04-03T00:28:08;4.85;;;2.50;;
49296;SDS011;35163;48.878;18.040;2023-04-03T00:30:35;3.90;;;2.53;;
49296;SDS011;35163;48.878;18.040;2023-04-03T00:33:02;4.47;;;2.28;;
49296;SDS011;35163;48.878;18.040;2023-04-03T00:35:29;6.18;;;3.05;;
49296;SDS011;35163;48.878;18.040;2023-04-03T00:37:56;4.82;;;2.72;;
49296;SDS011;35163;48.878;18.040;2023-04-03T00:40:24;5.32;;;2.80;;
49296;SDS011;35163;48.878;18.040;2023-04-03T00:42:57;4.78;;;2.58;;
49296;SDS011;35163;48.878;18.040;2023-04-03T00:45:38;3.67;;;2.60;;
49296;SDS011;35163;48.878;18.040;2023-04-03T00:48:08;6.47;;;3.00;;
49296;SDS011;35163;48.878;18.040;2023-04-03T00:50:40;6.45;;;2.90;;
49296;SDS011;35163;48.878;18.040;2023-04-03T00:53:10;5.45;;;3.05;;
49296;SDS011;35163;48.878;18.040;2023-04-03T00:55:40;5.30;;;2.75;;
49296;SDS011;35163;48.878;18.040;2023-04-03T00:58:07;5.53;;;2.80;;
49296;SDS011;35163;48.878;18.040;2023-04-03T01:00:36;6.45;;;3.03;;
49296;SDS011;35163;48.878;18.040;2023-04-03T01:03:06;4.95;;;3.03;;
49296;SDS011;35163;48.878;18.040;2023-04-03T01:05:33;5.35;;;2.90;;
49296;SDS011;35163;48.878;18.040;2023-04-03T01:08:00;5.22;;;3.05;;
49296;SDS011;35163;48.878;18.040;2023-04-03T01:10:27;4.97;;;3.08;;
49296;SDS011;35163;48.878;18.040;2023-04-03T01:12:53;7.10;;;3.50;;
49296;SDS011;35163;48.878;18.040;2023-04-03T01:15:22;6.95;;;3.63;;
49296;SDS011;35163;48.878;18.040;2023-04-03T01:17:54;4.88;;;2.95;;
49296;SDS011;35163;48.878;18.040;2023-04-03T01:23:12;5.93;;;3.22;;
49296;SDS011;35163;48.878;18.040;2023-04-03T01:28:37;6.13;;;3.20;;
49296;SDS011;35163;48.878;18.040;2023-04-03T01:31:13;5.22;;;3.10;;
49296;SDS011;35163;48.878;18.040;2023-04-03T01:33:46;5.25;;;3.08;;
49296;SDS011;35163;48.878;18.040;2023-04-03T01:36:23;4.82;;;2.90;;
49296;SDS011;35163;48.878;18.040;2023-04-03T01:38:53;6.75;;;3.30;;
49296;SDS011;35163;48.878;18.040;2023-04-03T01:41:20;4.90;;;2.95;;
49296;SDS011;35163;48.878;18.040;2023-04-03T01:43:48;5.30;;;2.75;;
49296;SDS011;35163;48.878;18.040;2023-04-03T01:46:15;6.28;;;3.00;;
49296;SDS011;35163;48.878;18.040;2023-04-03T01:48:43;6.80;;;3.22;;
49296;SDS011;35163;48.878;18.040;2023-04-03T01:51:12;5.72;;;3.00;;
49296;SDS011;35163;48.878;18.040;2023-04-03T01:53:41;5.10;;;2.80;;
49296;SDS011;35163;48.878;18.040;2023-04-03T01:56:08;6.75;;;3.10;;
49296;SDS011;35163;48.878;18.040;2023-04-03T01:58:35;4.63;;;2.88;;
49296;SDS011;35163;48.878;18.040;2023-04-03T02:01:02;4.72;;;3.00;;
49296;SDS011;35163;48.878;18.040;2023-04-03T02:03:29;5.93;;;2.75;;
49296;SDS011;35163;48.878;18.040;2023-04-03T02:05:56;5.25;;;2.85;;
49296;SDS011;35163;48.878;18.040;2023-04-03T02:08:25;5.03;;;2.70;;
49296;SDS011;35163;48.878;18.040;2023-04-03T02:10:52;6.18;;;2.58;;
49296;SDS011;35163;48.878;18.040;2023-04-03T02:13:19;4.88;;;2.72;;
49296;SDS011;35163;48.878;18.040;2023-04-03T02:15:45;5.97;;;3.00;;
49296;SDS011;35163;48.878;18.040;2023-04-03T02:18:13;7.93;;;3.00;;
49296;SDS011;35163;48.878;18.040;2023-04-03T02:20:40;4.60;;;2.50;;
49296;SDS011;35163;48.878;18.040;2023-04-03T02:23:06;6.60;;;2.90;;
49296;SDS011;35163;48.878;18.040;2023-04-03T02:25:33;5.60;;;3.25;;
49296;SDS011;35163;48.878;18.040;2023-04-03T02:28:03;7.28;;;3.15;;
49296;SDS011;35163;48.878;18.040;2023-04-03T02:30:30;5.55;;;3.00;;
49296;SDS011;35163;48.878;18.040;2023-04-03T02:32:56;4.53;;;2.80;;
49296;SDS011;35163;48.878;18.040;2023-04-03T02:35:23;11.00;;;5.70;;
49296;SDS011;35163;48.878;18.040;2023-04-03T02:37:50;14.70;;;6.53;;
49296;SDS011;35163;48.878;18.040;2023-04-03T02:40:17;12.63;;;6.45;;
49296;SDS011;35163;48.878;18.040;2023-04-03T02:42:43;7.28;;;3.72;;
49296;SDS011;35163;48.878;18.040;2023-04-03T02:45:11;8.82;;;4.68;;
49296;SDS011;35163;48.878;18.040;2023-04-03T02:47:38;4.75;;;3.00;;
49296;SDS011;35163;48.878;18.040;2023-04-03T02:50:04;5.10;;;2.97;;
49296;SDS011;35163;48.878;18.040;2023-04-03T02:52:31;5.57;;;3.00;;
49296;SDS011;35163;48.878;18.040;2023-04-03T02:54:58;5.32;;;2.78;;
49296;SDS011;35163;48.878;18.040;2023-04-03T02:57:25;6.40;;;3.50;;
49296;SDS011;35163;48.878;18.040;2023-04-03T02:59:51;5.05;;;2.80;;
49296;SDS011;35163;48.878;18.040;2023-04-03T03:02:18;6.03;;;3.08;;
49296;SDS011;35163;48.878;18.040;2023-04-03T03:04:45;5.20;;;3.15;;
49296;SDS011;35163;48.878;18.040;2023-04-03T03:07:11;6.35;;;3.13;;
49296;SDS011;35163;48.878;18.040;2023-04-03T03:09:38;5.90;;;3.45;;
49296;SDS011;35163;48.878;18.040;2023-04-03T03:12:05;6.18;;;3.58;;
49296;SDS011;35163;48.878;18.040;2023-04-03T03:14:32;5.82;;;3.28;;
49296;SDS011;35163;48.878;18.040;2023-04-03T03:17:01;5.60;;;3.33;;
49296;SDS011;35163;48.878;18.040;2023-04-03T03:19:28;5.78;;;3.97;;
49296;SDS011;35163;48.878;18.040;2023-04-03T03:21:54;7.30;;;3.88;;
49296;SDS011;35163;48.878;18.040;2023-04-03T03:24:23;6.25;;;3.53;;
49296;SDS011;35163;48.878;18.040;2023-04-03T03:26:49;8.00;;;3.92;;
49296;SDS011;35163;48.878;18.040;2023-04-03T03:29:16;6.53;;;3.70;;
49296;SDS011;35163;48.878;18.040;2023-04-03T03:31:43;7.63;;;3.67;;
49296;SDS011;35163;48.878;18.040;2023-04-03T03:34:09;7.18;;;3.55;;
49296;SDS011;35163;48.878;18.040;2023-04-03T03:36:36;4.93;;;3.10;;
49296;SDS011;35163;48.878;18.040;2023-04-03T03:39:03;5.45;;;3.35;;
49296;SDS011;35163;48.878;18.040;2023-04-03T03:41:29;5.75;;;3.00;;
49296;SDS011;35163;48.878;18.040;2023-04-03T03:43:57;5.68;;;3.00;;
49296;SDS011;35163;48.878;18.040;2023-04-03T03:46:23;6.65;;;3.78;;
49296;SDS011;35163;48.878;18.040;2023-04-03T03:48:53;6.80;;;3.65;;
49296;SDS011;35163;48.878;18.040;2023-04-03T03:51:19;7.53;;;3.72;;
49296;SDS011;35163;48.878;18.040;2023-04-03T03:53:46;6.25;;;3.20;;
49296;SDS011;35163;48.878;18.040;2023-04-03T03:56:13;5.00;;;3.35;;
49296;SDS011;35163;48.878;18.040;2023-04-03T03:58:39;5.13;;;3.00;;
49296;SDS011;35163;48.878;18.040;2023-04-03T04:01:06;5.65;;;3.10;;
49296;SDS011;35163;48.878;18.040;2023-04-03T04:03:33;5.63;;;3.15;;
49296;SDS011;35163;48.878;18.040;2023-04-03T04:06:00;5.80;;;3.33;;
49296;SDS011;35163;48.878;18.040;2023-04-03T04:08:27;4.97;;;2.88;;
49296;SDS011;35163;48.878;18.040;2023-04-03T04:10:54;6.15;;;3.35;;
49296;SDS011;35163;48.878;18.040;2023-04-03T04:13:20;6.65;;;3.45;;
49296;SDS011;35163;48.878;18.040;2023-04-03T04:15:47;6.72;;;3.17;;
49296;SDS011;35163;48.878;18.040;2023-04-03T04:18:15;7.63;;;3.40;;
49296;SDS011;35163;48.878;18.040;2023-04-03T04:20:42;7.63;;;3.22;;
49296;SDS011;35163;48.878;18.040;2023-04-03T04:23:14;6.18;;;3.55;;
49296;SDS011;35163;48.878;18.040;2023-04-03T04:25:40;7.28;;;3.78;;
49296;SDS011;35163;48.878;18.040;2023-04-03T04:28:07;6.38;;;3.40;;
49296;SDS011;35163;48.878;18.040;2023-04-03T04:30:34;7.10;;;3.78;;
49296;SDS011;35163;48.878;18.040;2023-04-03T04:33:01;6.55;;;3.35;;
49296;SDS011;35163;48.878;18.040;2023-04-03T04:35:27;5.97;;;3.47;;
49296;SDS011;35163;48.878;18.040;2023-04-03T04:37:54;5.82;;;3.63;;
49296;SDS011;35163;48.878;18.040;2023-04-03T04:40:21;5.88;;;3.28;;
49296;SDS011;35163;48.878;18.040;2023-04-03T04:42:51;7.38;;;4.28;;
49296;SDS011;35163;48.878;18.040;2023-04-03T04:45:19;9.07;;;3.70;;
49296;SDS011;35163;48.878;18.040;2023-04-03T04:47:46;9.63;;;3.88;;
49296;SDS011;35163;48.878;18.040;2023-04-03T04:50:13;9.43;;;4.20;;
49296;SDS011;35163;48.878;18.040;2023-04-03T04:52:39;7.22;;;4.03;;
49296;SDS011;35163;48.878;18.040;2023-04-03T04:55:07;6.55;;;3.70;;
49296;SDS011;35163;48.878;18.040;2023-04-03T04:57:34;7.70;;;4.15;;
49296;SDS011;35163;48.878;18.040;2023-04-03T05:00:02;7.03;;;3.67;;
49296;SDS011;35163;48.878;18.040;2023-04-03T05:02:29;8.07;;;4.30;;
49296;SDS011;35163;48.878;18.040;2023-04-03T05:04:56;9.15;;;4.22;;
49296;SDS011;35163;48.878;18.040;2023-04-03T05:07:24;6.72;;;3.97;;
49296;SDS011;35163;48.878;18.040;2023-04-03T05:09:52;7.40;;;4.25;;
49296;SDS011;35163;48.878;18.040;2023-04-03T05:12:19;7.25;;;4.47;;
49296;SDS011;35163;48.878;18.040;2023-04-03T05:14:45;9.27;;;4.10;;
49296;SDS011;35163;48.878;18.040;2023-04-03T05:17:12;10.30;;;4.50;;
49296;SDS011;35163;48.878;18.040;2023-04-03T05:19:39;7.95;;;4.00;;
49296;SDS011;35163;48.878;18.040;2023-04-03T05:22:06;8.05;;;4.22;;
49296;SDS011;35163;48.878;18.040;2023-04-03T05:24:32;9.65;;;4.93;;
49296;SDS011;35163;48.878;18.040;2023-04-03T05:26:59;10.20;;;4.90;;
49296;SDS011;35163;48.878;18.040;2023-04-03T05:29:26;9.77;;;4.90;;
49296;SDS011;35163;48.878;18.040;2023-04-03T05:31:52;8.93;;;4.60;;
49296;SDS011;35163;48.878;18.040;2023-04-03T05:34:19;9.38;;;5.25;;
49296;SDS011;35163;48.878;18.040;2023-04-03T05:36:46;10.68;;;5.35;;
49296;SDS011;35163;48.878;18.040;2023-04-03T05:39:13;9.98;;;5.28;;
49296;SDS011;35163;48.878;18.040;2023-04-03T05:41:39;9.40;;;5.18;;
49296;SDS011;35163;48.878;18.040;2023-04-03T05:44:06;8.75;;;5.00;;
49296;SDS011;35163;48.878;18.040;2023-04-03T05:46:33;9.52;;;4.68;;
49296;SDS011;35163;48.878;18.040;2023-04-03T05:48:59;10.23;;;5.38;;
49296;SDS011;35163;48.878;18.040;2023-04-03T05:51:30;10.18;;;5.72;;
49296;SDS011;35163;48.878;18.040;2023-04-03T05:54:45;10.13;;;5.63;;
49296;SDS011;35163;48.878;18.040;2023-04-03T05:56:54;10.48;;;5.85;;
49296;SDS011;35163;48.878;18.040;2023-04-03T05:59:21;8.60;;;5.03;;
49296;SDS011;35163;48.878;18.040;2023-04-03T06:01:48;11.18;;;6.00;;
49296;SDS011;35163;48.878;18.040;2023-04-03T06:04:14;13.25;;;5.65;;
49296;SDS011;35163;48.878;18.040;2023-04-03T06:06:42;10.95;;;6.15;;
49296;SDS011;35163;48.878;18.040;2023-04-03T06:09:09;11.27;;;6.30;;
49296;SDS011;35163;48.878;18.040;2023-04-03T06:11:36;10.95;;;5.82;;
49296;SDS011;35163;48.878;18.040;2023-04-03T06:14:03;10.73;;;6.15;;
49296;SDS011;35163;48.878;18.040;2023-04-03T06:16:32;10.85;;;5.78;;
49296;SDS011;35163;48.878;18.040;2023-04-03T06:19:01;13.57;;;6.10;;
49296;SDS011;35163;48.878;18.040;2023-04-03T06:21:28;11.00;;;5.65;;
49296;SDS011;35163;48.878;18.040;2023-04-03T06:23:55;10.52;;;5.72;;
49296;SDS011;35163;48.878;18.040;2023-04-03T06:26:22;11.25;;;5.60;;
49296;SDS011;35163;48.878;18.040;2023-04-03T06:28:48;12.90;;;6.00;;
49296;SDS011;35163;48.878;18.040;2023-04-03T06:31:15;12.75;;;5.68;;
49296;SDS011;35163;48.878;18.040;2023-04-03T06:33:45;13.05;;;6.82;;
49296;SDS011;35163;48.878;18.040;2023-04-03T06:36:15;10.75;;;6.07;;
49296;SDS011;35163;48.878;18.040;2023-04-03T06:38:46;12.98;;;5.30;;
49296;SDS011;35163;48.878;18.040;2023-04-03T06:41:13;11.88;;;5.03;;
49296;SDS011;35163;48.878;18.040;2023-04-03T06:43:40;10.95;;;5.22;;
49296;SDS011;35163;48.878;18.040;2023-04-03T06:46:12;9.70;;;5.00;;
49296;SDS011;35163;48.878;18.040;2023-04-03T06:48:46;16.70;;;5.03;;
49296;SDS011;35163;48.878;18.040;2023-04-03T06:51:23;11.15;;;4.60;;
49296;SDS011;35163;48.878;18.040;2023-04-03T06:53:57;11.23;;;4.72;;
49296;SDS011;35163;48.878;18.040;2023-04-03T06:56:27;9.15;;;3.83;;
49296;SDS011;35163;48.878;18.040;2023-04-03T06:58:55;11.65;;;4.13;;
49296;SDS011;35163;48.878;18.040;2023-04-03T07:01:24;8.65;;;4.63;;
49296;SDS011;35163;48.878;18.040;2023-04-03T07:03:54;9.10;;;4.35;;
49296;SDS011;35163;48.878;18.040;2023-04-03T07:06:23;11.60;;;4.30;;
49296;SDS011;35163;48.878;18.040;2023-04-03T07:08:53;8.30;;;4.15;;
49296;SDS011;35163;48.878;18.040;2023-04-03T07:11:23;8.77;;;4.30;;
49296;SDS011;35163;48.878;18.040;2023-04-03T07:13:50;8.27;;;3.97;;
49296;SDS011;35163;48.878;18.040;2023-04-03T07:16:17;8.20;;;3.92;;
49296;SDS011;35163;48.878;18.040;2023-04-03T07:18:48;9.02;;;3.90;;
49296;SDS011;35163;48.878;18.040;2023-04-03T07:21:15;10.75;;;3.78;;
49296;SDS011;35163;48.878;18.040;2023-04-03T07:23:41;10.02;;;3.83;;
49296;SDS011;35163;48.878;18.040;2023-04-03T07:26:08;14.45;;;3.70;;
49296;SDS011;35163;48.878;18.040;2023-04-03T07:28:35;7.65;;;3.63;;
49296;SDS011;35163;48.878;18.040;2023-04-03T07:31:07;10.77;;;3.45;;
49296;SDS011;35163;48.878;18.040;2023-04-03T07:33:39;10.35;;;3.78;;
49296;SDS011;35163;48.878;18.040;2023-04-03T07:36:07;8.40;;;3.38;;
49296;SDS011;35163;48.878;18.040;2023-04-03T07:38:37;7.32;;;3.50;;
49296;SDS011;35163;48.878;18.040;2023-04-03T07:41:04;7.75;;;3.88;;
49296;SDS011;35163;48.878;18.040;2023-04-03T07:43:30;10.43;;;3.15;;
49296;SDS011;35163;48.878;18.040;2023-04-03T07:45:57;7.07;;;3.45;;
49296;SDS011;35163;48.878;18.040;2023-04-03T07:48:25;8.23;;;3.53;;
49296;SDS011;35163;48.878;18.040;2023-04-03T07:50:52;7.28;;;3.25;;
49296;SDS011;35163;48.878;18.040;2023-04-03T07:53:19;10.02;;;3.78;;
49296;SDS011;35163;48.878;18.040;2023-04-03T07:55:47;8.13;;;3.67;;
49296;SDS011;35163;48.878;18.040;2023-04-03T07:58:16;8.55;;;2.88;;
49296;SDS011;35163;48.878;18.040;2023-04-03T08:00:45;10.00;;;3.60;;
49296;SDS011;35163;48.878;18.040;2023-04-03T08:03:15;7.60;;;3.17;;
49296;SDS011;35163;48.878;18.040;2023-04-03T08:05:45;9.02;;;3.20;;
49296;SDS011;35163;48.878;18.040;2023-04-03T08:08:17;7.32;;;3.33;;
49296;SDS011;35163;48.878;18.040;2023-04-03T08:10:53;6.65;;;3.40;;
49296;SDS011;35163;48.878;18.040;2023-04-03T08:13:20;5.63;;;2.78;;
49296;SDS011;35163;48.878;18.040;2023-04-03T08:15:48;10.10;;;3.38;;
49296;SDS011;35163;48.878;18.040;2023-04-03T08:18:15;9.77;;;3.13;;
49296;SDS011;35163;48.878;18.040;2023-04-03T08:20:43;7.72;;;2.95;;
49296;SDS011;35163;48.878;18.040;2023-04-03T08:23:10;7.50;;;3.35;;
49296;SDS011;35163;48.878;18.040;2023-04-03T08:25:40;7.28;;;3.50;;
49296;SDS011;35163;48.878;18.040;2023-04-03T08:28:08;6.93;;;3.72;;
49296;SDS011;35163;48.878;18.040;2023-04-03T08:30:40;6.88;;;3.40;;
49296;SDS011;35163;48.878;18.040;2023-04-03T08:33:08;7.18;;;3.42;;
49296;SDS011;35163;48.878;18.040;2023-04-03T08:35:41;15.27;;;3.65;;
49296;SDS011;35163;48.878;18.040;2023-04-03T08:38:11;6.15;;;3.00;;
49296;SDS011;35163;48.878;18.040;2023-04-03T08:40:45;9.15;;;3.60;;
49296;SDS011;35163;48.878;18.040;2023-04-03T08:45:55;12.63;;;3.70;;
49296;SDS011;35163;48.878;18.040;2023-04-03T08:48:26;5.50;;;2.83;;
49296;SDS011;35163;48.878;18.040;2023-04-03T08:50:58;7.88;;;2.92;;
49296;SDS011;35163;48.878;18.040;2023-04-03T08:53:29;8.68;;;3.38;;
49296;SDS011;35163;48.878;18.040;2023-04-03T08:56:04;8.35;;;3.65;;
49296;SDS011;35163;48.878;18.040;2023-04-03T09:01:34;9.63;;;4.03;;
49296;SDS011;35163;48.878;18.040;2023-04-03T09:04:09;7.05;;;3.25;;
49296;SDS011;35163;48.878;18.040;2023-04-03T09:06:39;7.07;;;3.13;;
49296;SDS011;35163;48.878;18.040;2023-04-03T09:09:21;10.65;;;3.45;;
49296;SDS011;35163;48.878;18.040;2023-04-03T09:20:19;3.60;;;2.08;;
49296;SDS011;35163;48.878;18.040;2023-04-03T09:22:47;6.32;;;2.58;;
49296;SDS011;35163;48.878;18.040;2023-04-03T09:25:20;7.30;;;2.95;;
49296;SDS011;35163;48.878;18.040;2023-04-03T09:27:49;5.68;;;2.80;;
49296;SDS011;35163;48.878;18.040;2023-04-03T09:30:24;10.20;;;3.22;;
49296;SDS011;35163;48.878;18.040;2023-04-03T09:32:52;5.72;;;2.75;;
49296;SDS011;35163;48.878;18.040;2023-04-03T09:43:38;9.50;;;3.42;;
49296;SDS011;35163;48.878;18.040;2023-04-03T09:46:20;5.43;;;2.78;;
49296;SDS011;35163;48.878;18.040;2023-04-03T09:48:52;6.63;;;3.03;;
49296;SDS011;35163;48.878;18.040;2023-04-03T09:51:35;8.23;;;3.03;;
49296;SDS011;35163;48.878;18.040;2023-04-03T09:54:23;7.80;;;2.80;;
49296;SDS011;35163;48.878;18.040;2023-04-03T09:57:07;6.88;;;2.97;;
49296;SDS011;35163;48.878;18.040;2023-04-03T09:59:41;7.25;;;3.13;;
49296;SDS011;35163;48.878;18.040;2023-04-03T10:04:46;6.30;;;3.10;;
49296;SDS011;35163;48.878;18.040;2023-04-03T10:12:54;7.22;;;2.95;;
49296;SDS011;35163;48.878;18.040;2023-04-03T10:15:45;6.63;;;2.72;;
49296;SDS011;35163;48.878;18.040;2023-04-03T10:21:13;6.80;;;2.45;;
49296;SDS011;35163;48.878;18.040;2023-04-03T10:24:06;5.05;;;2.33;;
49296;SDS011;35163;48.878;18.040;2023-04-03T10:29:23;7.03;;;2.25;;
49296;SDS011;35163;48.878;18.040;2023-04-03T10:32:24;4.28;;;2.03;;
49296;SDS011;35163;48.878;18.040;2023-04-03T10:35:06;4.72;;;2.25;;
49296;SDS011;35163;48.878;18.040;2023-04-03T10:37:55;6.50;;;2.88;;
49296;SDS011;35163;48.878;18.040;2023-04-03T10:40:34;7.15;;;2.70;;
49296;SDS011;35163;48.878;18.040;2023-04-03T10:48:30;5.85;;;2.80;;
49296;SDS011;35163;48.878;18.040;2023-04-03T10:51:46;8.55;;;3.00;;
49296;SDS011;35163;48.878;18.040;2023-04-03T10:54:08;6.85;;;3.42;;
49296;SDS011;35163;48.878;18.040;2023-04-03T10:56:40;7.78;;;2.90;;
49296;SDS011;35163;48.878;18.040;2023-04-03T11:04:27;7.25;;;3.03;;
49296;SDS011;35163;48.878;18.040;2023-04-03T11:07:11;8.02;;;2.83;;
49296;SDS011;35163;48.878;18.040;2023-04-03T11:09:44;5.90;;;2.53;;
49296;SDS011;35163;48.878;18.040;2023-04-03T11:12:21;8.48;;;3.05;;
49296;SDS011;35163;48.878;18.040;2023-04-03T11:14:53;7.43;;;2.50;;
49296;SDS011;35163;48.878;18.040;2023-04-03T11:17:39;6.90;;;3.05;;
49296;SDS011;35163;48.878;18.040;2023-04-03T11:20:23;5.10;;;2.60;;
49296;SDS011;35163;48.878;18.040;2023-04-03T11:23:08;5.53;;;2.70;;
49296;SDS011;35163;48.878;18.040;2023-04-03T11:25:48;6.15;;;2.70;;
49296;SDS011;35163;48.878;18.040;2023-04-03T11:28:18;7.18;;;2.80;;
49296;SDS011;35163;48.878;18.040;2023-04-03T11:33:36;8.50;;;3.33;;
49296;SDS011;35163;48.878;18.040;2023-04-03T11:36:25;7.35;;;3.03;;
49296;SDS011;35163;48.878;18.040;2023-04-03T11:39:07;9.95;;;3.85;;
49296;SDS011;35163;48.878;18.040;2023-04-03T11:41:43;8.52;;;3.22;;
49296;SDS011;35163;48.878;18.040;2023-04-03T11:47:07;8.05;;;2.63;;
49296;SDS011;35163;48.878;18.040;2023-04-03T11:49:56;8.10;;;3.10;;
49296;SDS011;35163;48.878;18.040;2023-04-03T12:13:37;8.40;;;2.95;;
49296;SDS011;35163;48.878;18.040;2023-04-03T12:21:16;4.95;;;2.50;;
49296;SDS011;35163;48.878;18.040;2023-04-03T12:26:31;6.82;;;2.22;;
49296;SDS011;35163;48.878;18.040;2023-04-03T12:29:23;5.80;;;2.50;;
49296;SDS011;35163;48.878;18.040;2023-04-03T12:32:06;5.53;;;2.22;;
49296;SDS011;35163;48.878;18.040;2023-04-03T12:43:24;6.53;;;2.38;;
49296;SDS011;35163;48.878;18.040;2023-04-03T12:46:04;4.10;;;1.92;;
49296;SDS011;35163;48.878;18.040;2023-04-03T12:51:15;5.80;;;2.22;;
49296;SDS011;35163;48.878;18.040;2023-04-03T12:53:46;4.38;;;1.77;;
49296;SDS011;35163;48.878;18.040;2023-04-03T12:58:47;5.30;;;1.98;;
49296;SDS011;35163;48.878;18.040;2023-04-03T13:01:16;5.88;;;2.08;;
49296;SDS011;35163;48.878;18.040;2023-04-03T13:03:47;5.32;;;2.05;;
49296;SDS011;35163;48.878;18.040;2023-04-03T13:06:26;7.28;;;2.55;;
49296;SDS011;35163;48.878;18.040;2023-04-03T13:08:58;4.82;;;1.90;;
49296;SDS011;35163;48.878;18.040;2023-04-03T13:11:27;5.45;;;2.28;;
49296;SDS011;35163;48.878;18.040;2023-04-03T13:14:02;5.97;;;1.88;;
49296;SDS011;35163;48.878;18.040;2023-04-03T13:16:32;5.90;;;2.10;;
49296;SDS011;35163;48.878;18.040;2023-04-03T13:19:00;8.40;;;2.20;;
49296;SDS011;35163;48.878;18.040;2023-04-03T13:21:30;4.22;;;1.90;;
49296;SDS011;35163;48.878;18.040;2023-04-03T13:24:00;6.78;;;2.22;;
49296;SDS011;35163;48.878;18.040;2023-04-03T13:26:40;9.95;;;2.42;;
49296;SDS011;35163;48.878;18.040;2023-04-03T13:29:18;7.95;;;2.70;;
49296;SDS011;35163;48.878;18.040;2023-04-03T13:31:56;6.57;;;2.40;;
49296;SDS011;35163;48.878;18.040;2023-04-03T13:34:27;5.60;;;2.00;;
49296;SDS011;35163;48.878;18.040;2023-04-03T13:37:00;7.10;;;2.45;;
49296;SDS011;35163;48.878;18.040;2023-04-03T13:39:32;11.98;;;2.08;;
49296;SDS011;35163;48.878;18.040;2023-04-03T13:42:01;14.63;;;3.00;;
49296;SDS011;35163;48.878;18.040;2023-04-03T13:44:41;9.50;;;2.47;;
49296;SDS011;35163;48.878;18.040;2023-04-03T13:50:00;5.55;;;2.15;;
49296;SDS011;35163;48.878;18.040;2023-04-03T13:52:43;4.93;;;2.50;;
49296;SDS011;35163;48.878;18.040;2023-04-03T13:55:19;7.25;;;2.30;;
49296;SDS011;35163;48.878;18.040;2023-04-03T13:57:56;10.23;;;2.78;;
49296;SDS011;35163;48.878;18.040;2023-04-03T14:02:53;5.18;;;2.38;;
49296;SDS011;35163;48.878;18.040;2023-04-03T14:05:24;10.82;;;2.20;;
49296;SDS011;35163;48.878;18.040;2023-04-03T14:07:52;4.65;;;2.08;;
49296;SDS011;35163;48.878;18.040;2023-04-03T14:10:23;6.88;;;2.20;;
49296;SDS011;35163;48.878;18.040;2023-04-03T14:12:50;5.88;;;2.20;;
49296;SDS011;35163;48.878;18.040;2023-04-03T14:15:23;5.65;;;2.15;;
49296;SDS011;35163;48.878;18.040;2023-04-03T14:17:52;11.10;;;2.67;;
49296;SDS011;35163;48.878;18.040;2023-04-03T14:20:20;8.45;;;2.28;;
49296;SDS011;35163;48.878;18.040;2023-04-03T14:22:50;6.85;;;2.20;;
49296;SDS011;35163;48.878;18.040;2023-04-03T14:25:18;6.45;;;2.33;;
49296;SDS011;35163;48.878;18.040;2023-04-03T14:27:46;7.28;;;3.08;;
49296;SDS011;35163;48.878;18.040;2023-04-03T14:32:41;7.60;;;2.40;;
49296;SDS011;35163;48.878;18.040;2023-04-03T14:35:08;5.28;;;2.58;;
49296;SDS011;35163;48.878;18.040;2023-04-03T14:37:35;16.15;;;6.45;;
49296;SDS011;35163;48.878;18.040;2023-04-03T14:40:03;21.77;;;8.98;;
49296;SDS011;35163;48.878;18.040;2023-04-03T14:42:35;7.45;;;2.80;;
49296;SDS011;35163;48.878;18.040;2023-04-03T14:45:04;4.55;;;2.20;;
49296;SDS011;35163;48.878;18.040;2023-04-03T14:47:33;5.75;;;2.05;;
49296;SDS011;35163;48.878;18.040;2023-04-03T14:50:07;7.03;;;2.33;;
49296;SDS011;35163;48.878;18.040;2023-04-03T14:52:42;6.75;;;2.70;;
49296;SDS011;35163;48.878;18.040;2023-04-03T14:55:11;7.70;;;2.75;;
49296;SDS011;35163;48.878;18.040;2023-04-03T14:57:40;6.40;;;2.30;;
49296;SDS011;35163;48.878;18.040;2023-04-03T15:00:11;16.67;;;2.83;;
49296;SDS011;35163;48.878;18.040;2023-04-03T15:02:40;8.85;;;2.47;;
49296;SDS011;35163;48.878;18.040;2023-04-03T15:05:09;4.72;;;2.10;;
49296;SDS011;35163;48.878;18.040;2023-04-03T15:07:37;10.32;;;2.92;;
49296;SDS011;35163;48.878;18.040;2023-04-03T15:10:17;8.27;;;3.30;;
49296;SDS011;35163;48.878;18.040;2023-04-03T15:12:46;12.95;;;4.10;;
49296;SDS011;35163;48.878;18.040;2023-04-03T15:15:14;6.30;;;2.55;;
49296;SDS011;35163;48.878;18.040;2023-04-03T15:17:43;6.45;;;2.72;;
49296;SDS011;35163;48.878;18.040;2023-04-03T15:20:12;5.43;;;2.40;;
49296;SDS011;35163;48.878;18.040;2023-04-03T15:22:39;6.15;;;2.55;;
49296;SDS011;35163;48.878;18.040;2023-04-03T15:25:06;7.63;;;2.88;;
49296;SDS011;35163;48.878;18.040;2023-04-03T15:27:33;5.75;;;2.60;;
49296;SDS011;35163;48.878;18.040;2023-04-03T15:30:00;5.22;;;2.28;;
49296;SDS011;35163;48.878;18.040;2023-04-03T15:32:27;10.15;;;2.67;;
49296;SDS011;35163;48.878;18.040;2023-04-03T15:34:57;6.18;;;2.58;;
49296;SDS011;35163;48.878;18.040;2023-04-03T15:37:30;6.20;;;2.60;;
49296;SDS011;35163;48.878;18.040;2023-04-03T15:39:57;6.95;;;2.85;;
49296;SDS011;35163;48.878;18.040;2023-04-03T15:42:24;8.48;;;2.40;;
49296;SDS011;35163;48.878;18.040;2023-04-03T15:44:50;6.90;;;2.78;;
49296;SDS011;35163;48.878;18.040;2023-04-03T15:47:17;8.13;;;2.70;;
49296;SDS011;35163;48.878;18.040;2023-04-03T15:49:44;5.38;;;2.35;;
49296;SDS011;35163;48.878;18.040;2023-04-03T15:52:11;6.60;;;2.42;;
49296;SDS011;35163;48.878;18.040;2023-04-03T15:54:38;8.45;;;2.72;;
49296;SDS011;35163;48.878;18.040;2023-04-03T15:57:04;7.40;;;2.60;;
49296;SDS011;35163;48.878;18.040;2023-04-03T15:59:31;9.95;;;2.67;;
49296;SDS011;35163;48.878;18.040;2023-04-03T16:01:58;9.73;;;2.92;;
49296;SDS011;35163;48.878;18.040;2023-04-03T16:04:27;9.10;;;2.58;;
49296;SDS011;35163;48.878;18.040;2023-04-03T16:06:57;7.13;;;2.97;;
49296;SDS011;35163;48.878;18.040;2023-04-03T16:09:23;7.07;;;2.50;;
49296;SDS011;35163;48.878;18.040;2023-04-03T16:11:50;7.97;;;2.63;;
49296;SDS011;35163;48.878;18.040;2023-04-03T16:14:20;10.77;;;3.10;;
49296;SDS011;35163;48.878;18.040;2023-04-03T16:16:47;6.75;;;2.95;;
49296;SDS011;35163;48.878;18.040;2023-04-03T16:19:16;3.78;;;2.13;;
49296;SDS011;35163;48.878;18.040;2023-04-03T16:21:43;6.80;;;2.83;;
49296;SDS011;35163;48.878;18.040;2023-04-03T16:24:10;10.20;;;3.47;;
49296;SDS011;35163;48.878;18.040;2023-04-03T16:26:37;5.93;;;2.47;;
49296;SDS011;35163;48.878;18.040;2023-04-03T16:29:06;7.38;;;2.45;;
49296;SDS011;35163;48.878;18.040;2023-04-03T16:31:33;6.50;;;2.72;;
49296;SDS011;35163;48.878;18.040;2023-04-03T16:34:01;7.10;;;2.92;;
49296;SDS011;35163;48.878;18.040;2023-04-03T16:36:28;8.45;;;2.78;;
49296;SDS011;35163;48.878;18.040;2023-04-03T16:38:55;7.93;;;2.85;;